createdAt,value
2018-11-03T00:00:19.460Z,6.08
2018-11-03T00:02:47.858Z,6.15
2018-11-03T00:05:16.477Z,6.16
2018-11-03T00:07:44.948Z,6.21
2018-11-03T00:10:12.972Z,6.28
2018-11-03T00:12:41.023Z,6.28
2018-11-03T00:15:09.420Z,6.26
2018-11-03T00:17:37.450Z,6.13
2018-11-03T00:20:06.210Z,6.14
2018-11-03T00:22:34.298Z,6.17
2018-11-03T00:25:02.296Z,6.15
2018-11-03T00:27:30.321Z,6.08
2018-11-03T00:29:58.408Z,6.06
2018-11-03T00:32:26.594Z,5.97
2018-11-03T00:34:54.593Z,5.97
2018-11-03T00:37:22.605Z,5.98
2018-11-03T00:39:50.629Z,5.98
2018-11-03T00:42:18.658Z,5.91
2018-11-03T00:44:46.637Z,5.86
2018-11-03T00:47:14.673Z,5.74
2018-11-03T00:49:42.749Z,5.63
2018-11-03T00:52:10.732Z,5.58
2018-11-03T00:54:38.737Z,5.62
2018-11-03T00:57:06.788Z,5.51
2018-11-03T00:59:34.776Z,5.43
2018-11-03T01:02:02.913Z,5.40
2018-11-03T01:04:30.977Z,5.31
2018-11-03T01:06:58.977Z,5.31
2018-11-03T01:09:27.045Z,5.20
2018-11-03T01:11:55.085Z,5.10
2018-11-03T01:14:23.178Z,5.16
2018-11-03T01:16:51.266Z,5.11
2018-11-03T01:19:19.248Z,5.11
2018-11-03T01:21:47.281Z,5.15
2018-11-03T01:24:15.264Z,5.13
2018-11-03T01:26:43.388Z,5.13
2018-11-03T01:29:11.686Z,5.04
2018-11-03T01:31:39.692Z,5.04
2018-11-03T01:34:07.705Z,4.95
2018-11-03T01:36:35.773Z,4.86
2018-11-03T01:39:04.649Z,4.80
2018-11-03T01:41:32.582Z,4.60
2018-11-03T01:44:00.615Z,4.50
2018-11-03T01:46:28.672Z,4.45
2018-11-03T01:48:56.651Z,4.31
2018-11-03T01:51:24.690Z,4.16
2018-11-03T01:53:52.686Z,4.07
2018-11-03T01:56:20.691Z,3.89
2018-11-03T01:58:48.957Z,3.95
2018-11-03T02:01:16.969Z,4.01
2018-11-03T02:03:44.976Z,3.94
2018-11-03T02:06:12.974Z,3.97
2018-11-03T02:08:41.240Z,4.01
2018-11-03T02:11:09.335Z,3.95
2018-11-03T02:13:37.348Z,3.99
2018-11-03T02:16:05.828Z,4.01
2018-11-03T02:18:33.837Z,4.07
2018-11-03T02:21:01.833Z,4.08
2018-11-03T02:23:29.837Z,4.06
2018-11-03T02:25:57.989Z,3.98
2018-11-03T02:28:26.016Z,3.95
2018-11-03T02:30:54.133Z,3.97
2018-11-03T02:33:22.213Z,3.99
2018-11-03T02:35:50.237Z,3.96
2018-11-03T02:38:18.273Z,4.01
2018-11-03T02:40:46.286Z,3.98
2018-11-03T02:43:14.325Z,3.99
2018-11-03T02:45:42.360Z,3.96
2018-11-03T02:48:10.435Z,3.94
2018-11-03T02:50:38.474Z,3.89
2018-11-03T02:53:06.459Z,3.97
2018-11-03T02:55:34.449Z,4.00
2018-11-03T02:58:02.453Z,4.08
2018-11-03T03:00:30.449Z,4.10
2018-11-03T03:02:58.496Z,4.18
2018-11-03T03:05:26.726Z,3.94
2018-11-03T03:07:54.729Z,3.54
2018-11-03T03:10:22.856Z,3.47
2018-11-03T03:12:50.840Z,3.66
2018-11-03T03:15:18.860Z,3.76
2018-11-03T03:17:46.870Z,3.80
2018-11-03T03:20:14.861Z,3.94
2018-11-03T03:22:43.065Z,4.00
2018-11-03T03:25:11.734Z,4.07
2018-11-03T03:27:39.814Z,4.04
2018-11-03T03:30:09.453Z,4.03
2018-11-03T03:32:37.459Z,4.04
2018-11-03T03:35:06.213Z,4.04
2018-11-03T03:37:34.241Z,4.10
2018-11-03T03:40:02.297Z,4.11
2018-11-03T03:42:30.280Z,4.14
2018-11-03T03:44:58.321Z,4.16
2018-11-03T03:47:26.329Z,4.03
2018-11-03T03:49:54.345Z,3.87
2018-11-03T03:52:22.460Z,3.76
2018-11-03T03:54:50.482Z,3.65
2018-11-03T03:57:18.489Z,3.47
2018-11-03T03:59:46.643Z,3.40
2018-11-03T04:02:14.633Z,3.32
2018-11-03T04:04:42.684Z,3.32
2018-11-03T04:07:10.747Z,3.49
2018-11-03T04:09:38.751Z,3.58
2018-11-03T04:14:35.400Z,3.81
2018-11-03T04:17:03.388Z,3.95
2018-11-03T04:19:31.449Z,3.98
2018-11-03T04:21:59.460Z,3.98
2018-11-03T04:24:27.473Z,4.14
2018-11-03T04:26:55.617Z,4.16
2018-11-03T04:29:23.629Z,4.12
2018-11-03T04:31:51.745Z,4.15
2018-11-03T04:34:19.906Z,4.09
2018-11-03T04:36:47.929Z,4.08
2018-11-03T04:39:15.945Z,3.98
2018-11-03T04:41:44.224Z,4.12
2018-11-03T04:44:12.261Z,4.18
2018-11-03T04:46:40.461Z,4.11
2018-11-03T04:49:08.466Z,4.05
2018-11-03T04:51:36.614Z,4.16
2018-11-03T04:54:04.625Z,4.07
2018-11-03T04:56:32.669Z,3.95
2018-11-03T04:59:00.673Z,3.67
2018-11-03T05:01:28.677Z,3.67
2018-11-03T05:03:56.884Z,3.43
2018-11-03T05:06:25.038Z,3.22
2018-11-03T05:08:53.047Z,3.11
2018-11-03T05:11:21.060Z,3.06
2018-11-03T05:13:49.082Z,3.06
2018-11-03T05:16:17.165Z,3.31
2018-11-03T05:18:45.571Z,3.35
2018-11-03T05:21:13.830Z,3.46
2018-11-03T05:23:41.765Z,3.50
2018-11-03T05:26:09.756Z,3.64
2018-11-03T05:28:37.936Z,3.73
2018-11-03T05:31:06.119Z,3.75
2018-11-03T05:33:34.072Z,3.62
2018-11-03T05:36:02.110Z,3.55
2018-11-03T05:38:30.208Z,3.64
2018-11-03T05:40:58.209Z,3.72
2018-11-03T05:43:26.289Z,3.48
2018-11-03T05:45:54.300Z,3.59
2018-11-03T05:48:22.349Z,3.76
2018-11-03T05:50:50.336Z,3.82
2018-11-03T05:53:18.329Z,3.90
2018-11-03T05:55:46.417Z,3.84
2018-11-03T05:58:14.494Z,3.84
2018-11-03T06:00:42.522Z,3.83
2018-11-03T06:03:10.512Z,3.92
2018-11-03T06:05:38.522Z,3.97
2018-11-03T06:08:06.384Z,3.94
2018-11-03T06:10:34.416Z,3.87
2018-11-03T06:13:02.408Z,3.81
2018-11-03T06:15:30.468Z,3.79
2018-11-03T06:17:58.409Z,3.80
2018-11-03T06:20:26.438Z,3.83
2018-11-03T06:22:54.503Z,3.80
2018-11-03T06:25:22.436Z,3.77
2018-11-03T06:27:50.470Z,3.68
2018-11-03T06:30:18.410Z,3.52
2018-11-03T06:32:46.406Z,3.65
2018-11-03T06:35:14.474Z,3.68
2018-11-03T06:37:42.436Z,3.70
2018-11-03T06:40:10.515Z,3.67
2018-11-03T06:42:38.881Z,3.49
2018-11-03T06:45:08.094Z,3.39
2018-11-03T06:47:36.172Z,3.36
2018-11-03T06:50:05.628Z,3.40
2018-11-03T06:52:33.741Z,3.50
2018-11-03T06:55:01.755Z,3.51
2018-11-03T06:57:29.740Z,3.63
2018-11-03T06:59:57.749Z,3.76
2018-11-03T07:02:25.818Z,3.90
2018-11-03T07:04:53.998Z,3.99
2018-11-03T07:07:21.985Z,4.12
2018-11-03T07:09:50.102Z,4.29
2018-11-03T07:12:18.221Z,4.45
2018-11-03T07:14:46.152Z,4.61
2018-11-03T07:17:14.277Z,4.51
2018-11-03T07:19:42.285Z,4.74
2018-11-03T07:22:10.317Z,4.98
2018-11-03T07:24:38.332Z,5.29
2018-11-03T07:27:06.443Z,5.72
2018-11-03T07:29:34.591Z,6.36
2018-11-03T07:32:02.581Z,7.08
2018-11-03T07:34:30.569Z,7.78
2018-11-03T07:36:58.713Z,8.57
2018-11-03T07:39:26.789Z,9.43
2018-11-03T07:41:54.821Z,10.30
2018-11-03T07:44:22.857Z,11.53
2018-11-03T07:46:50.859Z,12.77
2018-11-03T07:49:19.124Z,13.94
2018-11-03T07:51:48.402Z,14.75
2018-11-03T07:54:16.528Z,15.43
2018-11-03T07:56:44.672Z,15.91
2018-11-03T07:59:12.724Z,16.28
2018-11-03T08:01:40.741Z,16.85
2018-11-03T08:04:09.209Z,17.33
2018-11-03T08:06:37.493Z,17.83
2018-11-03T08:09:07.734Z,18.30
2018-11-03T08:11:35.841Z,18.57
2018-11-03T08:14:03.829Z,18.87
2018-11-03T08:16:31.825Z,19.05
2018-11-03T08:18:59.924Z,19.15
2018-11-03T08:21:28.025Z,19.31
2018-11-03T08:23:56.121Z,19.35
2018-11-03T08:26:24.020Z,18.56
2018-11-03T08:28:52.066Z,18.12
2018-11-03T08:31:20.152Z,18.12
2018-11-03T08:33:48.145Z,18.14
2018-11-03T08:36:16.285Z,18.04
2018-11-03T08:38:44.285Z,18.27
2018-11-03T08:41:12.313Z,18.54
2018-11-03T08:43:40.297Z,18.60
2018-11-03T08:46:09.100Z,18.30
2018-11-03T08:48:37.300Z,17.59
2018-11-03T08:51:05.296Z,18.06
2018-11-03T08:53:33.276Z,17.99
2018-11-03T08:56:01.289Z,17.56
2018-11-03T08:58:29.304Z,17.78
2018-11-03T09:00:57.308Z,17.47
2018-11-03T09:03:25.430Z,17.18
2018-11-03T09:05:53.417Z,16.98
2018-11-03T09:08:21.463Z,16.84
2018-11-03T09:10:49.652Z,16.66
2018-11-03T09:13:17.713Z,16.36
2018-11-03T09:15:45.716Z,15.92
2018-11-03T09:18:13.750Z,16.09
2018-11-03T09:20:41.763Z,16.49
2018-11-03T09:23:10.035Z,16.71
2018-11-03T09:25:38.057Z,17.12
2018-11-03T09:28:06.053Z,17.19
2018-11-03T09:30:34.043Z,16.97
2018-11-03T09:33:02.109Z,17.50
2018-11-03T09:35:30.109Z,17.92
2018-11-03T09:37:58.182Z,18.45
2018-11-03T09:40:26.172Z,18.85
2018-11-03T09:42:54.227Z,19.12
2018-11-03T09:45:22.180Z,19.64
2018-11-03T09:47:50.200Z,19.93
2018-11-03T09:50:18.206Z,20.36
2018-11-03T09:52:46.186Z,20.31
2018-11-03T09:55:15.796Z,20.23
2018-11-03T09:57:43.976Z,20.42
2018-11-03T10:00:14.275Z,20.55
2018-11-03T10:02:42.268Z,20.63
2018-11-03T10:05:11.564Z,20.65
2018-11-03T10:07:39.597Z,20.63
2018-11-03T10:10:09.929Z,20.85
2018-11-03T10:12:37.940Z,21.13
2018-11-03T10:15:05.953Z,20.72
2018-11-03T10:17:33.983Z,20.25
2018-11-03T10:20:02.001Z,20.27
2018-11-03T10:22:30.103Z,20.19
2018-11-03T10:24:58.157Z,20.01
2018-11-03T10:27:26.152Z,20.37
2018-11-03T10:29:54.155Z,20.60
2018-11-03T10:32:22.135Z,20.10
2018-11-03T10:34:50.137Z,19.97
2018-11-03T10:37:18.219Z,20.13
2018-11-03T10:39:46.250Z,19.52
2018-11-03T10:42:14.277Z,19.20
2018-11-03T10:44:42.323Z,19.09
2018-11-03T10:47:10.341Z,19.09
2018-11-03T10:49:42.576Z,19.09
2018-11-03T10:52:11.166Z,19.16
2018-11-03T10:54:39.358Z,19.24
2018-11-03T10:57:07.711Z,19.25
2018-11-03T10:59:35.804Z,19.13
2018-11-03T11:02:09.146Z,18.45
2018-11-03T11:04:42.581Z,17.43
2018-11-03T11:07:17.811Z,17.36
2018-11-03T11:09:51.156Z,17.18
2018-11-03T11:12:24.721Z,16.81
2018-11-03T11:14:52.996Z,16.65
2018-11-03T11:17:21.001Z,15.75
2018-11-03T11:19:49.020Z,15.39
2018-11-03T11:22:17.305Z,14.85
2018-11-03T11:24:45.591Z,14.44
2018-11-03T11:27:13.502Z,14.33
2018-11-03T11:29:41.513Z,14.25
2018-11-03T11:32:09.553Z,14.15
2018-11-03T11:34:37.551Z,14.05
2018-11-03T11:37:05.740Z,13.69
2018-11-03T11:39:33.816Z,13.20
2018-11-03T11:42:01.795Z,13.33
2018-11-03T11:44:29.794Z,13.23
2018-11-03T11:46:57.801Z,13.22
2018-11-03T11:49:25.825Z,13.39
2018-11-03T11:51:53.813Z,13.37
2018-11-03T11:54:21.946Z,13.52
2018-11-03T11:56:49.929Z,13.82
2018-11-03T11:59:17.924Z,13.93
2018-11-03T12:01:45.916Z,14.00
2018-11-03T12:04:14.113Z,14.31
2018-11-03T12:06:42.184Z,14.37
2018-11-03T12:09:10.593Z,14.47
2018-11-03T12:11:38.619Z,14.25
2018-11-03T12:14:06.613Z,14.42
2018-11-03T12:16:34.689Z,14.48
2018-11-03T12:19:02.675Z,14.80
2018-11-03T12:21:30.776Z,14.81
2018-11-03T12:23:58.759Z,14.90
2018-11-03T12:26:26.747Z,14.73
2018-11-03T12:28:54.777Z,14.80
2018-11-03T12:31:22.769Z,14.89
2018-11-03T12:33:50.913Z,14.93
2018-11-03T12:36:19.000Z,14.41
2018-11-03T12:38:46.964Z,13.89
2018-11-03T12:41:15.272Z,14.05
2018-11-03T12:43:43.191Z,14.28
2018-11-03T12:46:11.341Z,14.09
2018-11-03T12:48:39.300Z,13.96
2018-11-03T12:51:07.278Z,13.94
2018-11-03T12:53:35.521Z,14.13
2018-11-03T12:56:03.573Z,14.28
2018-11-03T12:58:31.600Z,14.38
2018-11-03T13:00:59.587Z,14.20
2018-11-03T13:03:27.692Z,14.13
2018-11-03T13:05:55.604Z,14.21
2018-11-03T13:08:23.604Z,14.06
2018-11-03T13:10:51.574Z,14.38
2018-11-03T13:13:19.597Z,14.44
2018-11-03T13:15:47.658Z,14.35
2018-11-03T13:18:15.626Z,14.52
2018-11-03T13:20:43.625Z,14.40
2018-11-03T13:23:11.645Z,14.33
2018-11-03T13:25:39.650Z,14.00
2018-11-03T13:28:07.644Z,14.10
2018-11-03T13:30:35.689Z,14.36
2018-11-03T13:33:03.748Z,14.16
2018-11-03T13:35:31.749Z,13.78
2018-11-03T13:37:59.744Z,13.69
2018-11-03T13:40:27.737Z,13.64
2018-11-03T13:42:55.781Z,13.72
2018-11-03T13:45:23.800Z,13.88
2018-11-03T13:47:51.910Z,14.05
2018-11-03T13:50:19.814Z,14.12
2018-11-03T13:52:48.644Z,14.03
2018-11-03T13:55:16.663Z,14.13
2018-11-03T13:57:45.660Z,14.09
2018-11-03T14:00:15.069Z,14.21
2018-11-03T14:02:44.936Z,14.31
2018-11-03T14:05:12.966Z,14.18
2018-11-03T14:07:40.948Z,14.33
2018-11-03T14:10:11.591Z,14.09
2018-11-03T14:12:39.658Z,13.92
2018-11-03T14:15:09.183Z,13.69
2018-11-03T14:17:37.200Z,13.74
2018-11-03T14:20:06.549Z,13.50
2018-11-03T14:22:34.563Z,13.25
2018-11-03T14:25:02.546Z,13.30
2018-11-03T14:27:30.560Z,13.28
2018-11-03T14:29:58.623Z,13.16
2018-11-03T14:32:26.697Z,13.06
2018-11-03T14:34:54.766Z,12.80
2018-11-03T14:37:22.798Z,12.93
2018-11-03T14:39:51.308Z,12.61
2018-11-03T14:42:19.420Z,12.76
2018-11-03T14:44:47.494Z,12.64
2018-11-03T14:47:15.520Z,12.50
2018-11-03T14:49:43.636Z,12.47
2018-11-03T14:52:11.732Z,12.62
2018-11-03T14:54:39.736Z,12.52
2018-11-03T14:57:07.731Z,12.54
2018-11-03T14:59:35.730Z,12.67
2018-11-03T15:02:03.717Z,12.70
2018-11-03T15:04:31.704Z,12.75
2018-11-03T15:06:59.704Z,12.80
2018-11-03T15:09:27.708Z,12.79
2018-11-03T15:11:56.792Z,12.86
2018-11-03T15:14:25.020Z,12.86
2018-11-03T15:16:52.833Z,12.87
2018-11-03T15:19:20.879Z,12.91
2018-11-03T15:21:48.942Z,12.78
2018-11-03T15:24:16.980Z,12.81
2018-11-03T15:26:44.992Z,12.75
2018-11-03T15:29:13.117Z,12.66
2018-11-03T15:31:41.250Z,12.63
2018-11-03T15:34:09.456Z,12.61
2018-11-03T15:36:37.575Z,12.46
2018-11-03T15:39:06.479Z,12.35
2018-11-03T15:41:34.628Z,12.24
2018-11-03T15:44:02.586Z,12.16
2018-11-03T15:46:30.606Z,11.95
2018-11-03T15:48:58.650Z,11.81
2018-11-03T15:51:26.738Z,11.67
2018-11-03T15:53:54.817Z,11.54
2018-11-03T15:56:22.824Z,11.32
2018-11-03T15:58:50.893Z,11.24
2018-11-03T16:01:25.373Z,11.04
2018-11-03T16:03:53.380Z,10.75
2018-11-03T16:06:21.427Z,10.50
2018-11-03T16:08:49.428Z,10.37
2018-11-03T16:11:17.445Z,10.05
2018-11-03T16:13:45.481Z,9.99
2018-11-03T16:16:13.505Z,9.94
2018-11-03T16:18:41.630Z,9.79
2018-11-03T16:21:09.697Z,9.70
2018-11-03T16:23:37.781Z,9.61
2018-11-03T16:26:05.873Z,9.44
2018-11-03T16:28:34.014Z,9.37
2018-11-03T16:31:01.869Z,9.28
2018-11-03T16:33:29.979Z,9.08
2018-11-03T16:35:58.492Z,8.94
2018-11-03T16:38:26.674Z,8.85
2018-11-03T16:40:54.536Z,8.77
2018-11-03T16:43:22.549Z,8.57
2018-11-03T16:45:50.620Z,8.52
2018-11-03T16:48:18.605Z,8.28
2018-11-03T16:50:46.592Z,8.27
2018-11-03T16:53:14.669Z,8.02
2018-11-03T16:55:42.680Z,7.91
2018-11-03T16:58:10.691Z,7.85
2018-11-03T17:00:38.679Z,7.76
2018-11-03T17:03:06.886Z,7.64
2018-11-03T17:05:35.068Z,7.53
2018-11-03T17:08:03.065Z,7.36
2018-11-03T17:10:31.129Z,7.29
2018-11-03T17:12:59.180Z,7.24
2018-11-03T17:15:27.149Z,7.14
2018-11-03T17:17:55.290Z,7.09
2018-11-03T17:20:23.443Z,7.10
2018-11-03T17:22:51.518Z,7.06
2018-11-03T17:25:19.612Z,6.98
2018-11-03T17:27:47.539Z,6.98
2018-11-03T17:30:16.077Z,6.85
2018-11-03T17:32:44.613Z,6.83
2018-11-03T17:35:12.816Z,6.85
2018-11-03T17:37:40.973Z,6.78
2018-11-03T17:40:09.785Z,6.72
2018-11-03T17:42:37.809Z,6.71
2018-11-03T17:45:06.628Z,6.72
2018-11-03T17:47:34.710Z,6.74
2018-11-03T17:50:02.813Z,6.69
2018-11-03T17:52:30.813Z,6.72
2018-11-03T17:54:58.897Z,6.66
2018-11-03T17:57:26.843Z,6.67
2018-11-03T17:59:54.982Z,6.53
2018-11-03T18:02:23.030Z,6.46
2018-11-03T18:04:51.185Z,6.47
2018-11-03T18:07:19.257Z,6.43
2018-11-03T18:09:47.268Z,6.33
2018-11-03T18:12:15.383Z,6.38
2018-11-03T18:14:43.424Z,6.32
2018-11-03T18:17:11.420Z,6.27
2018-11-03T18:19:39.533Z,6.21
2018-11-03T18:22:07.601Z,6.29
2018-11-03T18:24:35.601Z,6.21
2018-11-03T18:27:03.629Z,6.13
2018-11-03T18:29:31.617Z,6.02
2018-11-03T18:31:59.688Z,6.10
2018-11-03T18:34:27.754Z,5.94
2018-11-03T18:36:55.777Z,5.97
2018-11-03T18:39:23.797Z,5.99
2018-11-03T18:41:51.852Z,6.12
2018-11-03T18:44:19.843Z,6.12
2018-11-03T18:46:47.940Z,6.16
2018-11-03T18:49:15.911Z,6.20
2018-11-03T18:51:43.938Z,6.11
2018-11-03T18:54:12.093Z,6.13
2018-11-03T18:56:41.176Z,6.08
2018-11-03T18:59:09.197Z,5.99
2018-11-03T19:01:37.236Z,5.86
2018-11-03T19:04:05.252Z,5.95
2018-11-03T19:06:33.253Z,5.92
2018-11-03T19:09:01.413Z,5.87
2018-11-03T19:11:29.362Z,5.84
2018-11-03T19:13:57.590Z,5.75
2018-11-03T19:16:25.564Z,5.61
2018-11-03T19:18:53.653Z,5.56
2018-11-03T19:21:21.664Z,5.51
2018-11-03T19:23:49.831Z,5.54
2018-11-03T19:26:17.683Z,5.50
2018-11-03T19:28:45.882Z,5.46
2018-11-03T19:31:13.882Z,5.43
2018-11-03T19:33:41.885Z,5.41
2018-11-03T19:36:09.908Z,5.39
2018-11-03T19:38:37.929Z,5.38
2018-11-03T19:41:06.028Z,5.34
2018-11-03T19:45:55.928Z,5.25
2018-11-03T19:48:24.000Z,5.17
2018-11-03T19:50:52.021Z,5.18
2018-11-03T19:53:20.084Z,5.21
2018-11-03T19:55:48.155Z,5.13
2018-11-03T19:58:16.151Z,5.07
2018-11-03T20:00:44.312Z,5.13
2018-11-03T20:03:12.364Z,5.05
2018-11-03T20:05:40.316Z,5.02
2018-11-03T20:08:08.338Z,4.98
2018-11-03T20:10:36.392Z,5.08
2018-11-03T20:13:04.417Z,5.18
2018-11-03T20:15:32.521Z,5.16
2018-11-03T20:18:00.596Z,5.20
2018-11-03T20:20:28.543Z,5.20
2018-11-03T20:22:56.631Z,5.20
2018-11-03T20:25:24.677Z,5.18
2018-11-03T20:27:52.709Z,5.11
2018-11-03T20:30:20.735Z,5.14
2018-11-03T20:32:48.763Z,5.11
2018-11-03T20:35:16.778Z,5.00
2018-11-03T20:37:44.772Z,5.00
2018-11-03T20:40:13.804Z,4.93
2018-11-03T20:42:41.816Z,4.75
2018-11-03T20:45:09.864Z,4.68
2018-11-03T20:47:38.436Z,4.68
2018-11-03T20:50:08.094Z,4.77
2018-11-03T20:52:36.105Z,4.86
2018-11-03T20:55:04.129Z,4.89
2018-11-03T20:57:32.135Z,5.00
2018-11-03T21:00:00.150Z,4.90
2018-11-03T21:02:28.193Z,5.04
2018-11-03T21:04:56.242Z,5.03
2018-11-03T21:07:24.213Z,5.15
2018-11-03T21:09:52.261Z,5.27
2018-11-03T21:12:20.296Z,5.29
2018-11-03T21:14:48.325Z,5.41
2018-11-03T21:17:16.341Z,5.51
2018-11-03T21:19:44.499Z,5.53
2018-11-03T21:22:13.208Z,5.52
2018-11-03T21:24:41.245Z,5.48
2018-11-03T21:27:10.692Z,5.44
2018-11-03T21:29:38.765Z,5.28
2018-11-03T21:32:07.312Z,5.10
2018-11-03T21:34:35.145Z,5.07
2018-11-03T21:37:03.301Z,4.94
2018-11-03T21:39:31.298Z,4.91
2018-11-03T21:41:59.336Z,4.84
2018-11-03T21:44:27.371Z,4.90
2018-11-03T21:46:55.476Z,4.97
2018-11-03T21:49:23.488Z,4.89
2018-11-03T21:51:51.753Z,4.94
2018-11-03T21:54:19.732Z,5.04
2018-11-03T21:56:47.739Z,4.99
2018-11-03T21:59:15.706Z,5.03
2018-11-03T22:01:43.697Z,5.09
2018-11-03T22:04:11.684Z,4.93
2018-11-03T22:06:39.865Z,4.97
2018-11-03T22:09:09.749Z,4.82
2018-11-03T22:11:37.765Z,4.82
2018-11-03T22:14:05.815Z,4.85
2018-11-03T22:16:33.897Z,4.91
2018-11-03T22:19:02.482Z,5.02
2018-11-03T22:21:31.235Z,5.07
2018-11-03T22:23:59.530Z,5.21
2018-11-03T22:26:28.028Z,5.24
2018-11-03T22:28:56.255Z,5.32
2018-11-03T22:31:24.433Z,5.40
2018-11-03T22:33:52.421Z,5.48
2018-11-03T22:36:21.291Z,5.49
2018-11-03T22:38:49.381Z,5.46
2018-11-03T22:41:17.365Z,5.50
2018-11-03T22:43:45.417Z,5.57
2018-11-03T22:46:13.483Z,5.51
2018-11-03T22:48:41.519Z,5.40
2018-11-03T22:51:13.733Z,5.37
2018-11-03T22:53:42.023Z,5.38
2018-11-03T22:56:10.482Z,5.42
2018-11-03T22:58:38.513Z,5.29
2018-11-03T23:01:06.546Z,5.35
2018-11-03T23:03:34.687Z,5.26
2018-11-03T23:06:03.439Z,5.22
2018-11-03T23:08:32.009Z,5.35
2018-11-03T23:11:00.241Z,5.44
2018-11-03T23:13:28.354Z,5.42
2018-11-03T23:15:56.461Z,5.40
2018-11-03T23:18:24.492Z,5.43
2018-11-03T23:20:52.530Z,5.55
2018-11-03T23:23:20.539Z,5.52
2018-11-03T23:25:48.553Z,5.52
2018-11-03T23:28:16.576Z,5.45
2018-11-03T23:30:44.601Z,5.45
2018-11-03T23:33:12.668Z,5.31
2018-11-03T23:35:40.705Z,5.33
2018-11-03T23:38:08.766Z,5.35
2018-11-03T23:40:36.774Z,5.28
2018-11-03T23:43:04.921Z,5.23
2018-11-03T23:45:33.005Z,5.17
2018-11-03T23:48:01.080Z,5.06
2018-11-03T23:50:29.739Z,5.09
2018-11-03T23:52:58.220Z,5.04
2018-11-03T23:55:26.749Z,5.08
2018-11-03T23:57:55.490Z,5.08
